sensor_id;sensor_type;location;lat;lon;timestamp;P1;durP1;ratioP1;P2;durP2;ratioP2
50301;SDS011;36550;50.472;19.744;2022-08-06T00:01:17;16.35;;;10.35;;
50301;SDS011;36550;50.472;19.744;2022-08-06T00:04:01;19.02;;;10.78;;
50301;SDS011;36550;50.472;19.744;2022-08-06T00:06:45;12.23;;;8.90;;
50301;SDS011;36550;50.472;19.744;2022-08-06T00:09:29;10.82;;;8.20;;
50301;SDS011;36550;50.472;19.744;2022-08-06T00:12:14;14.83;;;9.20;;
50301;SDS011;36550;50.472;19.744;2022-08-06T00:14:59;16.17;;;8.78;;
50301;SDS011;36550;50.472;19.744;2022-08-06T00:17:45;15.15;;;9.58;;
50301;SDS011;36550;50.472;19.744;2022-08-06T00:20:29;16.32;;;9.78;;
50301;SDS011;36550;50.472;19.744;2022-08-06T00:23:14;12.97;;;9.27;;
50301;SDS011;36550;50.472;19.744;2022-08-06T00:25:58;12.00;;;9.08;;
50301;SDS011;36550;50.472;19.744;2022-08-06T00:28:42;10.10;;;8.60;;
50301;SDS011;36550;50.472;19.744;2022-08-06T00:31:26;15.25;;;8.80;;
50301;SDS011;36550;50.472;19.744;2022-08-06T00:34:11;17.17;;;9.23;;
50301;SDS011;36550;50.472;19.744;2022-08-06T00:36:55;12.88;;;9.45;;
50301;SDS011;36550;50.472;19.744;2022-08-06T00:39:39;14.43;;;9.43;;
50301;SDS011;36550;50.472;19.744;2022-08-06T00:42:24;10.82;;;9.40;;
50301;SDS011;36550;50.472;19.744;2022-08-06T00:45:10;12.88;;;8.65;;
50301;SDS011;36550;50.472;19.744;2022-08-06T00:47:54;12.68;;;7.92;;
50301;SDS011;36550;50.472;19.744;2022-08-06T00:50:39;10.15;;;8.73;;
50301;SDS011;36550;50.472;19.744;2022-08-06T00:53:24;9.55;;;8.55;;
50301;SDS011;36550;50.472;19.744;2022-08-06T00:56:08;10.53;;;8.80;;
50301;SDS011;36550;50.472;19.744;2022-08-06T00:58:52;11.80;;;8.93;;
50301;SDS011;36550;50.472;19.744;2022-08-06T01:01:37;11.53;;;8.40;;
50301;SDS011;36550;50.472;19.744;2022-08-06T01:04:21;14.07;;;8.35;;
50301;SDS011;36550;50.472;19.744;2022-08-06T01:07:05;11.73;;;8.53;;
50301;SDS011;36550;50.472;19.744;2022-08-06T01:09:49;10.10;;;8.15;;
50301;SDS011;36550;50.472;19.744;2022-08-06T01:12:34;9.35;;;8.38;;
50301;SDS011;36550;50.472;19.744;2022-08-06T01:15:18;12.37;;;9.30;;
50301;SDS011;36550;50.472;19.744;2022-08-06T01:21:06;12.03;;;8.38;;
50301;SDS011;36550;50.472;19.744;2022-08-06T01:31:13;13.38;;;9.30;;
50301;SDS011;36550;50.472;19.744;2022-08-06T01:34:05;12.53;;;9.60;;
50301;SDS011;36550;50.472;19.744;2022-08-06T01:37:09;11.43;;;9.58;;
50301;SDS011;36550;50.472;19.744;2022-08-06T01:40:03;12.13;;;8.73;;
50301;SDS011;36550;50.472;19.744;2022-08-06T01:42:51;11.68;;;8.45;;
50301;SDS011;36550;50.472;19.744;2022-08-06T01:45:38;13.30;;;7.97;;
50301;SDS011;36550;50.472;19.744;2022-08-06T01:48:25;8.40;;;6.35;;
50301;SDS011;36550;50.472;19.744;2022-08-06T01:51:11;8.93;;;7.87;;
50301;SDS011;36550;50.472;19.744;2022-08-06T01:53:56;11.20;;;9.20;;
50301;SDS011;36550;50.472;19.744;2022-08-06T01:56:44;12.78;;;9.48;;
50301;SDS011;36550;50.472;19.744;2022-08-06T01:59:35;10.10;;;8.20;;
50301;SDS011;36550;50.472;19.744;2022-08-06T02:02:23;9.38;;;8.38;;
50301;SDS011;36550;50.472;19.744;2022-08-06T02:05:10;13.30;;;7.78;;
50301;SDS011;36550;50.472;19.744;2022-08-06T02:07:57;11.05;;;7.58;;
50301;SDS011;36550;50.472;19.744;2022-08-06T02:10:43;8.60;;;7.75;;
50301;SDS011;36550;50.472;19.744;2022-08-06T02:13:30;10.00;;;7.72;;
50301;SDS011;36550;50.472;19.744;2022-08-06T02:16:16;9.43;;;8.03;;
50301;SDS011;36550;50.472;19.744;2022-08-06T02:19:02;8.78;;;7.53;;
50301;SDS011;36550;50.472;19.744;2022-08-06T02:21:49;10.18;;;7.12;;
50301;SDS011;36550;50.472;19.744;2022-08-06T02:24:35;11.03;;;6.22;;
50301;SDS011;36550;50.472;19.744;2022-08-06T02:27:20;8.98;;;7.42;;
50301;SDS011;36550;50.472;19.744;2022-08-06T02:30:06;8.63;;;7.55;;
50301;SDS011;36550;50.472;19.744;2022-08-06T02:32:51;11.05;;;7.92;;
50301;SDS011;36550;50.472;19.744;2022-08-06T02:35:42;8.28;;;7.47;;
50301;SDS011;36550;50.472;19.744;2022-08-06T02:38:28;9.58;;;8.50;;
50301;SDS011;36550;50.472;19.744;2022-08-06T02:47:29;11.80;;;7.70;;
50301;SDS011;36550;50.472;19.744;2022-08-06T02:50:20;9.00;;;7.78;;
50301;SDS011;36550;50.472;19.744;2022-08-06T02:53:25;8.75;;;7.83;;
50301;SDS011;36550;50.472;19.744;2022-08-06T02:56:16;8.80;;;7.90;;
50301;SDS011;36550;50.472;19.744;2022-08-06T02:59:01;11.40;;;7.80;;
50301;SDS011;36550;50.472;19.744;2022-08-06T03:01:53;9.30;;;7.42;;
50301;SDS011;36550;50.472;19.744;2022-08-06T03:04:42;9.03;;;7.60;;
50301;SDS011;36550;50.472;19.744;2022-08-06T03:07:29;7.72;;;6.92;;
50301;SDS011;36550;50.472;19.744;2022-08-06T03:10:16;9.53;;;8.18;;
50301;SDS011;36550;50.472;19.744;2022-08-06T03:13:03;14.03;;;8.13;;
50301;SDS011;36550;50.472;19.744;2022-08-06T03:15:49;13.15;;;8.18;;
50301;SDS011;36550;50.472;19.744;2022-08-06T03:18:36;8.10;;;7.40;;
50301;SDS011;36550;50.472;19.744;2022-08-06T03:21:21;11.10;;;8.83;;
50301;SDS011;36550;50.472;19.744;2022-08-06T03:24:07;10.20;;;8.95;;
50301;SDS011;36550;50.472;19.744;2022-08-06T03:26:53;11.45;;;9.88;;
50301;SDS011;36550;50.472;19.744;2022-08-06T03:29:41;11.05;;;8.95;;
50301;SDS011;36550;50.472;19.744;2022-08-06T03:32:27;15.63;;;10.03;;
50301;SDS011;36550;50.472;19.744;2022-08-06T03:35:12;15.78;;;12.60;;
50301;SDS011;36550;50.472;19.744;2022-08-06T03:37:58;16.95;;;10.70;;
50301;SDS011;36550;50.472;19.744;2022-08-06T03:40:43;16.55;;;11.22;;
50301;SDS011;36550;50.472;19.744;2022-08-06T03:43:30;16.37;;;10.90;;
50301;SDS011;36550;50.472;19.744;2022-08-06T03:46:16;15.80;;;11.15;;
50301;SDS011;36550;50.472;19.744;2022-08-06T03:49:18;18.02;;;12.07;;
50301;SDS011;36550;50.472;19.744;2022-08-06T03:52:27;14.65;;;11.05;;
50301;SDS011;36550;50.472;19.744;2022-08-06T03:55:12;14.50;;;10.20;;
50301;SDS011;36550;50.472;19.744;2022-08-06T03:58:03;12.20;;;9.95;;
50301;SDS011;36550;50.472;19.744;2022-08-06T04:00:58;12.65;;;9.70;;
50301;SDS011;36550;50.472;19.744;2022-08-06T04:03:43;10.48;;;9.33;;
50301;SDS011;36550;50.472;19.744;2022-08-06T04:09:14;17.97;;;9.10;;
50301;SDS011;36550;50.472;19.744;2022-08-06T04:11:59;10.45;;;8.78;;
50301;SDS011;36550;50.472;19.744;2022-08-06T04:14:45;10.48;;;8.58;;
50301;SDS011;36550;50.472;19.744;2022-08-06T04:17:30;10.53;;;8.30;;
50301;SDS011;36550;50.472;19.744;2022-08-06T04:23:02;8.75;;;7.90;;
50301;SDS011;36550;50.472;19.744;2022-08-06T04:25:53;9.38;;;7.72;;
50301;SDS011;36550;50.472;19.744;2022-08-06T04:28:41;8.70;;;7.90;;
50301;SDS011;36550;50.472;19.744;2022-08-06T04:31:27;8.03;;;7.12;;
50301;SDS011;36550;50.472;19.744;2022-08-06T04:34:14;8.83;;;7.62;;
50301;SDS011;36550;50.472;19.744;2022-08-06T04:37:05;9.23;;;6.97;;
50301;SDS011;36550;50.472;19.744;2022-08-06T04:39:49;9.03;;;7.42;;
50301;SDS011;36550;50.472;19.744;2022-08-06T04:42:34;9.45;;;7.75;;
50301;SDS011;36550;50.472;19.744;2022-08-06T04:45:18;8.10;;;7.30;;
50301;SDS011;36550;50.472;19.744;2022-08-06T04:48:03;9.33;;;7.47;;
50301;SDS011;36550;50.472;19.744;2022-08-06T04:50:50;9.80;;;7.55;;
50301;SDS011;36550;50.472;19.744;2022-08-06T04:53:35;8.18;;;6.87;;
50301;SDS011;36550;50.472;19.744;2022-08-06T04:56:22;12.05;;;7.60;;
50301;SDS011;36550;50.472;19.744;2022-08-06T04:59:06;8.45;;;7.65;;
50301;SDS011;36550;50.472;19.744;2022-08-06T05:01:50;9.90;;;7.50;;
50301;SDS011;36550;50.472;19.744;2022-08-06T05:04:34;17.42;;;7.00;;
50301;SDS011;36550;50.472;19.744;2022-08-06T05:07:20;8.75;;;6.40;;
50301;SDS011;36550;50.472;19.744;2022-08-06T05:10:12;9.38;;;6.53;;
50301;SDS011;36550;50.472;19.744;2022-08-06T05:12:56;8.63;;;6.65;;
50301;SDS011;36550;50.472;19.744;2022-08-06T05:15:41;7.58;;;6.78;;
50301;SDS011;36550;50.472;19.744;2022-08-06T05:18:35;9.90;;;6.80;;
50301;SDS011;36550;50.472;19.744;2022-08-06T05:21:29;7.87;;;7.12;;
50301;SDS011;36550;50.472;19.744;2022-08-06T05:24:19;8.55;;;6.20;;
50301;SDS011;36550;50.472;19.744;2022-08-06T05:27:04;10.28;;;6.58;;
50301;SDS011;36550;50.472;19.744;2022-08-06T05:29:48;7.22;;;6.33;;
50301;SDS011;36550;50.472;19.744;2022-08-06T05:32:45;11.53;;;6.57;;
50301;SDS011;36550;50.472;19.744;2022-08-06T05:35:32;6.90;;;5.72;;
50301;SDS011;36550;50.472;19.744;2022-08-06T05:38:18;8.00;;;6.05;;
50301;SDS011;36550;50.472;19.744;2022-08-06T05:41:03;9.78;;;5.72;;
50301;SDS011;36550;50.472;19.744;2022-08-06T05:43:53;7.42;;;6.03;;
50301;SDS011;36550;50.472;19.744;2022-08-06T05:46:40;7.92;;;5.85;;
50301;SDS011;36550;50.472;19.744;2022-08-06T05:49:37;8.95;;;6.15;;
50301;SDS011;36550;50.472;19.744;2022-08-06T05:52:30;9.03;;;6.47;;
50301;SDS011;36550;50.472;19.744;2022-08-06T05:55:20;13.28;;;7.62;;
50301;SDS011;36550;50.472;19.744;2022-08-06T06:01:34;8.08;;;6.97;;
50301;SDS011;36550;50.472;19.744;2022-08-06T06:07:04;9.95;;;7.17;;
50301;SDS011;36550;50.472;19.744;2022-08-06T06:09:48;7.95;;;6.90;;
50301;SDS011;36550;50.472;19.744;2022-08-06T06:12:33;8.97;;;6.87;;
50301;SDS011;36550;50.472;19.744;2022-08-06T06:15:18;9.58;;;7.72;;
50301;SDS011;36550;50.472;19.744;2022-08-06T06:18:13;9.28;;;7.92;;
50301;SDS011;36550;50.472;19.744;2022-08-06T06:24:22;10.68;;;7.70;;
50301;SDS011;36550;50.472;19.744;2022-08-06T06:30:16;14.05;;;10.10;;
50301;SDS011;36550;50.472;19.744;2022-08-06T06:33:15;13.60;;;12.20;;
50301;SDS011;36550;50.472;19.744;2022-08-06T06:36:12;12.70;;;11.50;;
50301;SDS011;36550;50.472;19.744;2022-08-06T06:42:09;16.20;;;12.20;;
50301;SDS011;36550;50.472;19.744;2022-08-06T06:45:05;13.65;;;12.40;;
50301;SDS011;36550;50.472;19.744;2022-08-06T06:50:52;18.35;;;12.05;;
50301;SDS011;36550;50.472;19.744;2022-08-06T06:53:42;13.45;;;11.55;;
50301;SDS011;36550;50.472;19.744;2022-08-06T06:56:30;13.62;;;12.35;;
50301;SDS011;36550;50.472;19.744;2022-08-06T06:59:24;15.18;;;11.88;;
50301;SDS011;36550;50.472;19.744;2022-08-06T07:02:19;12.25;;;10.95;;
50301;SDS011;36550;50.472;19.744;2022-08-06T07:05:07;10.75;;;9.75;;
50301;SDS011;36550;50.472;19.744;2022-08-06T07:07:53;13.18;;;9.20;;
50301;SDS011;36550;50.472;19.744;2022-08-06T07:10:39;11.50;;;9.85;;
50301;SDS011;36550;50.472;19.744;2022-08-06T07:13:26;11.50;;;9.68;;
50301;SDS011;36550;50.472;19.744;2022-08-06T07:16:13;9.30;;;8.40;;
50301;SDS011;36550;50.472;19.744;2022-08-06T07:19:00;9.90;;;7.45;;
50301;SDS011;36550;50.472;19.744;2022-08-06T07:21:48;10.38;;;8.33;;
50301;SDS011;36550;50.472;19.744;2022-08-06T07:24:33;9.80;;;8.90;;
50301;SDS011;36550;50.472;19.744;2022-08-06T07:27:20;9.40;;;8.50;;
50301;SDS011;36550;50.472;19.744;2022-08-06T07:30:05;9.20;;;8.30;;
50301;SDS011;36550;50.472;19.744;2022-08-06T07:32:51;10.75;;;8.00;;
50301;SDS011;36550;50.472;19.744;2022-08-06T07:35:36;8.60;;;7.80;;
50301;SDS011;36550;50.472;19.744;2022-08-06T07:38:27;10.48;;;9.00;;
50301;SDS011;36550;50.472;19.744;2022-08-06T07:41:14;8.70;;;7.90;;
50301;SDS011;36550;50.472;19.744;2022-08-06T07:44:02;7.67;;;6.92;;
50301;SDS011;36550;50.472;19.744;2022-08-06T07:46:51;7.87;;;6.72;;
50301;SDS011;36550;50.472;19.744;2022-08-06T07:49:41;6.20;;;5.60;;
50301;SDS011;36550;50.472;19.744;2022-08-06T07:52:29;5.80;;;5.30;;
50301;SDS011;36550;50.472;19.744;2022-08-06T07:55:15;5.97;;;4.47;;
50301;SDS011;36550;50.472;19.744;2022-08-06T07:58:01;4.75;;;3.00;;
50301;SDS011;36550;50.472;19.744;2022-08-06T08:00:48;4.45;;;2.70;;
50301;SDS011;36550;50.472;19.744;2022-08-06T08:03:32;6.07;;;2.57;;
50301;SDS011;36550;50.472;19.744;2022-08-06T08:06:38;5.22;;;2.30;;
50301;SDS011;36550;50.472;19.744;2022-08-06T08:12:07;4.08;;;2.37;;
50301;SDS011;36550;50.472;19.744;2022-08-06T08:14:57;3.80;;;2.47;;
50301;SDS011;36550;50.472;19.744;2022-08-06T08:17:42;3.27;;;2.37;;
50301;SDS011;36550;50.472;19.744;2022-08-06T08:20:28;3.83;;;2.20;;
50301;SDS011;36550;50.472;19.744;2022-08-06T08:23:14;3.55;;;2.30;;
50301;SDS011;36550;50.472;19.744;2022-08-06T08:26:00;2.47;;;2.02;;
50301;SDS011;36550;50.472;19.744;2022-08-06T08:28:46;3.80;;;2.55;;
50301;SDS011;36550;50.472;19.744;2022-08-06T08:31:30;2.20;;;1.90;;
50301;SDS011;36550;50.472;19.744;2022-08-06T08:34:15;3.42;;;1.70;;
50301;SDS011;36550;50.472;19.744;2022-08-06T08:36:59;2.52;;;2.05;;
50301;SDS011;36550;50.472;19.744;2022-08-06T08:39:43;2.47;;;1.70;;
50301;SDS011;36550;50.472;19.744;2022-08-06T08:42:43;5.12;;;1.70;;
50301;SDS011;36550;50.472;19.744;2022-08-06T08:45:32;2.33;;;1.50;;
50301;SDS011;36550;50.472;19.744;2022-08-06T08:48:20;3.37;;;1.40;;
50301;SDS011;36550;50.472;19.744;2022-08-06T08:51:07;3.42;;;1.30;;
50301;SDS011;36550;50.472;19.744;2022-08-06T08:53:55;2.00;;;1.22;;
50301;SDS011;36550;50.472;19.744;2022-08-06T08:56:46;1.60;;;1.27;;
50301;SDS011;36550;50.472;19.744;2022-08-06T08:59:31;3.05;;;1.32;;
50301;SDS011;36550;50.472;19.744;2022-08-06T09:02:16;7.75;;;1.15;;
50301;SDS011;36550;50.472;19.744;2022-08-06T09:05:00;3.83;;;1.20;;
50301;SDS011;36550;50.472;19.744;2022-08-06T09:07:45;1.80;;;1.30;;
50301;SDS011;36550;50.472;19.744;2022-08-06T09:10:30;3.40;;;1.25;;
50301;SDS011;36550;50.472;19.744;2022-08-06T09:13:14;2.30;;;1.20;;
50301;SDS011;36550;50.472;19.744;2022-08-06T09:15:58;0.98;;;0.88;;
50301;SDS011;36550;50.472;19.744;2022-08-06T09:18:44;0.95;;;0.70;;
50301;SDS011;36550;50.472;19.744;2022-08-06T09:21:28;1.13;;;0.80;;
50301;SDS011;36550;50.472;19.744;2022-08-06T09:24:13;0.95;;;0.85;;
50301;SDS011;36550;50.472;19.744;2022-08-06T09:27:01;1.25;;;0.60;;
50301;SDS011;36550;50.472;19.744;2022-08-06T09:32:41;0.78;;;0.78;;
50301;SDS011;36550;50.472;19.744;2022-08-06T09:35:28;1.47;;;0.82;;
50301;SDS011;36550;50.472;19.744;2022-08-06T09:38:14;2.52;;;0.90;;
50301;SDS011;36550;50.472;19.744;2022-08-06T09:43:50;0.75;;;0.60;;
50301;SDS011;36550;50.472;19.744;2022-08-06T09:49:28;0.60;;;0.37;;
50301;SDS011;36550;50.472;19.744;2022-08-06T09:52:28;0.95;;;0.30;;
50301;SDS011;36550;50.472;19.744;2022-08-06T09:55:19;1.40;;;0.30;;
50301;SDS011;36550;50.472;19.744;2022-08-06T09:58:12;0.72;;;0.30;;
50301;SDS011;36550;50.472;19.744;2022-08-06T10:00:57;4.37;;;0.40;;
50301;SDS011;36550;50.472;19.744;2022-08-06T10:03:56;2.65;;;0.30;;
50301;SDS011;36550;50.472;19.744;2022-08-06T10:06:55;0.30;;;0.20;;
50301;SDS011;36550;50.472;19.744;2022-08-06T10:10:00;2.50;;;0.40;;
50301;SDS011;36550;50.472;19.744;2022-08-06T10:12:36;2.00;;;0.30;;
50301;SDS011;36550;50.472;19.744;2022-08-06T10:15:29;0.37;;;0.30;;
50301;SDS011;36550;50.472;19.744;2022-08-06T10:18:48;0.40;;;0.30;;
50301;SDS011;36550;50.472;19.744;2022-08-06T10:21:22;0.47;;;0.30;;
50301;SDS011;36550;50.472;19.744;2022-08-06T10:24:11;1.52;;;0.28;;
50301;SDS011;36550;50.472;19.744;2022-08-06T10:26:55;0.80;;;0.30;;
50301;SDS011;36550;50.472;19.744;2022-08-06T10:29:53;1.65;;;0.20;;
50301;SDS011;36550;50.472;19.744;2022-08-06T10:32:46;0.95;;;0.30;;
50301;SDS011;36550;50.472;19.744;2022-08-06T10:35:35;0.45;;;0.20;;
50301;SDS011;36550;50.472;19.744;2022-08-06T10:38:20;1.25;;;0.40;;
50301;SDS011;36550;50.472;19.744;2022-08-06T10:41:10;1.22;;;0.40;;
50301;SDS011;36550;50.472;19.744;2022-08-06T10:43:56;2.45;;;0.40;;
50301;SDS011;36550;50.472;19.744;2022-08-06T10:46:41;0.62;;;0.40;;
50301;SDS011;36550;50.472;19.744;2022-08-06T10:49:26;1.37;;;0.50;;
50301;SDS011;36550;50.472;19.744;2022-08-06T10:52:12;1.10;;;0.50;;
50301;SDS011;36550;50.472;19.744;2022-08-06T10:54:57;1.32;;;0.50;;
50301;SDS011;36550;50.472;19.744;2022-08-06T10:57:43;1.22;;;0.47;;
50301;SDS011;36550;50.472;19.744;2022-08-06T11:00:28;1.02;;;0.60;;
50301;SDS011;36550;50.472;19.744;2022-08-06T11:03:24;0.90;;;0.60;;
50301;SDS011;36550;50.472;19.744;2022-08-06T11:06:23;1.17;;;0.70;;
50301;SDS011;36550;50.472;19.744;2022-08-06T11:09:40;1.20;;;1.05;;
50301;SDS011;36550;50.472;19.744;2022-08-06T11:12:52;2.35;;;1.32;;
50301;SDS011;36550;50.472;19.744;2022-08-06T11:15:53;1.50;;;1.40;;
50301;SDS011;36550;50.472;19.744;2022-08-06T11:18:51;4.23;;;1.87;;
50301;SDS011;36550;50.472;19.744;2022-08-06T11:21:38;9.35;;;2.10;;
50301;SDS011;36550;50.472;19.744;2022-08-06T11:24:23;2.95;;;1.98;;
50301;SDS011;36550;50.472;19.744;2022-08-06T11:27:46;2.10;;;1.77;;
50301;SDS011;36550;50.472;19.744;2022-08-06T11:30:42;2.55;;;1.87;;
50301;SDS011;36550;50.472;19.744;2022-08-06T11:36:25;2.42;;;2.17;;
50301;SDS011;36550;50.472;19.744;2022-08-06T11:39:11;1.92;;;1.72;;
50301;SDS011;36550;50.472;19.744;2022-08-06T11:41:57;2.62;;;1.87;;
50301;SDS011;36550;50.472;19.744;2022-08-06T11:44:59;2.00;;;1.85;;
50301;SDS011;36550;50.472;19.744;2022-08-06T11:47:34;2.20;;;2.00;;
50301;SDS011;36550;50.472;19.744;2022-08-06T11:50:24;4.25;;;2.50;;
50301;SDS011;36550;50.472;19.744;2022-08-06T11:53:08;4.92;;;2.50;;
50301;SDS011;36550;50.472;19.744;2022-08-06T11:56:04;2.20;;;2.00;;
50301;SDS011;36550;50.472;19.744;2022-08-06T11:58:49;2.30;;;2.00;;
50301;SDS011;36550;50.472;19.744;2022-08-06T12:01:45;2.87;;;2.00;;
50301;SDS011;36550;50.472;19.744;2022-08-06T12:07:28;1.90;;;1.70;;
50301;SDS011;36550;50.472;19.744;2022-08-06T12:10:13;1.40;;;1.30;;
50301;SDS011;36550;50.472;19.744;2022-08-06T12:12:58;1.70;;;1.40;;
50301;SDS011;36550;50.472;19.744;2022-08-06T12:15:42;1.95;;;1.30;;
50301;SDS011;36550;50.472;19.744;2022-08-06T12:18:28;1.90;;;1.60;;
50301;SDS011;36550;50.472;19.744;2022-08-06T12:21:12;4.83;;;1.60;;
50301;SDS011;36550;50.472;19.744;2022-08-06T12:23:57;1.92;;;1.50;;
50301;SDS011;36550;50.472;19.744;2022-08-06T12:26:41;2.60;;;2.00;;
50301;SDS011;36550;50.472;19.744;2022-08-06T12:29:29;2.30;;;2.00;;
50301;SDS011;36550;50.472;19.744;2022-08-06T12:32:24;3.92;;;2.17;;
50301;SDS011;36550;50.472;19.744;2022-08-06T12:35:13;4.28;;;1.75;;
50301;SDS011;36550;50.472;19.744;2022-08-06T12:37:57;1.77;;;1.50;;
50301;SDS011;36550;50.472;19.744;2022-08-06T12:40:51;1.75;;;1.40;;
50301;SDS011;36550;50.472;19.744;2022-08-06T12:43:41;3.58;;;1.47;;
50301;SDS011;36550;50.472;19.744;2022-08-06T12:46:28;1.70;;;1.40;;
50301;SDS011;36550;50.472;19.744;2022-08-06T12:49:12;1.72;;;1.47;;
50301;SDS011;36550;50.472;19.744;2022-08-06T12:52:10;1.60;;;1.50;;
50301;SDS011;36550;50.472;19.744;2022-08-06T12:55:03;3.20;;;1.70;;
50301;SDS011;36550;50.472;19.744;2022-08-06T12:57:49;2.95;;;1.80;;
50301;SDS011;36550;50.472;19.744;2022-08-06T13:00:33;1.85;;;1.67;;
50301;SDS011;36550;50.472;19.744;2022-08-06T13:03:17;2.40;;;1.50;;
50301;SDS011;36550;50.472;19.744;2022-08-06T13:06:05;2.25;;;1.32;;
50301;SDS011;36550;50.472;19.744;2022-08-06T13:08:51;1.80;;;1.37;;
50301;SDS011;36550;50.472;19.744;2022-08-06T13:11:37;1.50;;;1.10;;
50301;SDS011;36550;50.472;19.744;2022-08-06T13:14:22;1.80;;;1.17;;
50301;SDS011;36550;50.472;19.744;2022-08-06T13:17:10;3.98;;;1.35;;
50301;SDS011;36550;50.472;19.744;2022-08-06T13:19:56;1.50;;;1.37;;
50301;SDS011;36550;50.472;19.744;2022-08-06T13:22:50;1.90;;;1.60;;
50301;SDS011;36550;50.472;19.744;2022-08-06T13:25:47;1.92;;;1.50;;
50301;SDS011;36550;50.472;19.744;2022-08-06T13:28:35;1.75;;;1.50;;
50301;SDS011;36550;50.472;19.744;2022-08-06T13:31:19;1.50;;;1.40;;
50301;SDS011;36550;50.472;19.744;2022-08-06T13:34:05;1.53;;;1.43;;
50301;SDS011;36550;50.472;19.744;2022-08-06T13:36:56;2.20;;;2.00;;
50301;SDS011;36550;50.472;19.744;2022-08-06T13:39:48;2.27;;;1.90;;
50301;SDS011;36550;50.472;19.744;2022-08-06T13:42:54;2.15;;;1.90;;
50301;SDS011;36550;50.472;19.744;2022-08-06T13:45:40;2.73;;;1.97;;
50301;SDS011;36550;50.472;19.744;2022-08-06T13:48:24;1.92;;;1.72;;
50301;SDS011;36550;50.472;19.744;2022-08-06T13:51:12;2.02;;;1.40;;
50301;SDS011;36550;50.472;19.744;2022-08-06T13:53:58;2.33;;;1.37;;
50301;SDS011;36550;50.472;19.744;2022-08-06T13:56:42;3.12;;;1.00;;
50301;SDS011;36550;50.472;19.744;2022-08-06T13:59:28;3.92;;;1.50;;
50301;SDS011;36550;50.472;19.744;2022-08-06T14:02:14;2.33;;;1.30;;
50301;SDS011;36550;50.472;19.744;2022-08-06T14:04:59;2.20;;;1.20;;
50301;SDS011;36550;50.472;19.744;2022-08-06T14:07:43;3.35;;;1.40;;
50301;SDS011;36550;50.472;19.744;2022-08-06T14:10:28;2.80;;;1.42;;
50301;SDS011;36550;50.472;19.744;2022-08-06T14:13:12;1.77;;;1.32;;
50301;SDS011;36550;50.472;19.744;2022-08-06T14:16:02;4.67;;;1.60;;
50301;SDS011;36550;50.472;19.744;2022-08-06T14:18:47;1.92;;;1.40;;
50301;SDS011;36550;50.472;19.744;2022-08-06T14:21:31;1.60;;;1.50;;
50301;SDS011;36550;50.472;19.744;2022-08-06T14:24:17;3.47;;;1.57;;
50301;SDS011;36550;50.472;19.744;2022-08-06T14:27:02;4.62;;;1.60;;
50301;SDS011;36550;50.472;19.744;2022-08-06T14:29:47;3.42;;;1.80;;
50301;SDS011;36550;50.472;19.744;2022-08-06T14:32:31;2.92;;;1.80;;
50301;SDS011;36550;50.472;19.744;2022-08-06T14:35:16;2.25;;;1.75;;
50301;SDS011;36550;50.472;19.744;2022-08-06T14:38:01;2.58;;;1.72;;
50301;SDS011;36550;50.472;19.744;2022-08-06T14:40:49;4.03;;;1.92;;
50301;SDS011;36550;50.472;19.744;2022-08-06T14:43:51;3.30;;;2.05;;
50301;SDS011;36550;50.472;19.744;2022-08-06T14:46:54;5.00;;;2.20;;
50301;SDS011;36550;50.472;19.744;2022-08-06T14:49:39;4.30;;;2.35;;
50301;SDS011;36550;50.472;19.744;2022-08-06T14:52:23;4.70;;;2.77;;
50301;SDS011;36550;50.472;19.744;2022-08-06T14:55:08;8.13;;;2.10;;
50301;SDS011;36550;50.472;19.744;2022-08-06T14:57:53;2.95;;;2.12;;
50301;SDS011;36550;50.472;19.744;2022-08-06T15:00:37;3.70;;;2.00;;
50301;SDS011;36550;50.472;19.744;2022-08-06T15:03:21;3.50;;;2.20;;
50301;SDS011;36550;50.472;19.744;2022-08-06T15:06:05;4.53;;;2.40;;
50301;SDS011;36550;50.472;19.744;2022-08-06T15:08:50;2.90;;;2.17;;
50301;SDS011;36550;50.472;19.744;2022-08-06T15:11:35;5.15;;;2.55;;
50301;SDS011;36550;50.472;19.744;2022-08-06T15:14:19;3.12;;;2.10;;
50301;SDS011;36550;50.472;19.744;2022-08-06T15:17:03;5.08;;;2.15;;
50301;SDS011;36550;50.472;19.744;2022-08-06T15:19:47;8.68;;;2.52;;
50301;SDS011;36550;50.472;19.744;2022-08-06T15:22:32;6.12;;;2.20;;
50301;SDS011;36550;50.472;19.744;2022-08-06T15:28:02;3.50;;;2.00;;
50301;SDS011;36550;50.472;19.744;2022-08-06T15:30:46;5.20;;;2.30;;
50301;SDS011;36550;50.472;19.744;2022-08-06T15:33:32;2.35;;;1.62;;
50301;SDS011;36550;50.472;19.744;2022-08-06T15:36:17;3.80;;;1.87;;
50301;SDS011;36550;50.472;19.744;2022-08-06T15:39:01;2.90;;;1.80;;
50301;SDS011;36550;50.472;19.744;2022-08-06T15:41:46;3.25;;;2.25;;
50301;SDS011;36550;50.472;19.744;2022-08-06T15:44:30;3.12;;;1.98;;
50301;SDS011;36550;50.472;19.744;2022-08-06T15:47:14;2.85;;;1.75;;
50301;SDS011;36550;50.472;19.744;2022-08-06T15:49:59;4.28;;;1.70;;
50301;SDS011;36550;50.472;19.744;2022-08-06T15:52:44;5.62;;;1.82;;
50301;SDS011;36550;50.472;19.744;2022-08-06T15:55:28;5.75;;;1.98;;
50301;SDS011;36550;50.472;19.744;2022-08-06T15:58:12;4.47;;;1.95;;
50301;SDS011;36550;50.472;19.744;2022-08-06T16:00:58;4.95;;;1.67;;
50301;SDS011;36550;50.472;19.744;2022-08-06T16:03:42;2.85;;;2.00;;
50301;SDS011;36550;50.472;19.744;2022-08-06T16:06:26;3.47;;;1.90;;
50301;SDS011;36550;50.472;19.744;2022-08-06T16:09:11;5.13;;;2.10;;
50301;SDS011;36550;50.472;19.744;2022-08-06T16:14:41;5.53;;;2.02;;
50301;SDS011;36550;50.472;19.744;2022-08-06T16:17:25;5.58;;;1.95;;
50301;SDS011;36550;50.472;19.744;2022-08-06T16:20:10;3.92;;;1.92;;
50301;SDS011;36550;50.472;19.744;2022-08-06T16:22:56;3.08;;;1.85;;
50301;SDS011;36550;50.472;19.744;2022-08-06T16:25:41;2.75;;;1.60;;
50301;SDS011;36550;50.472;19.744;2022-08-06T16:28:26;4.33;;;1.17;;
50301;SDS011;36550;50.472;19.744;2022-08-06T16:31:10;2.58;;;1.10;;
50301;SDS011;36550;50.472;19.744;2022-08-06T16:33:54;2.02;;;1.10;;
50301;SDS011;36550;50.472;19.744;2022-08-06T16:36:38;1.95;;;1.00;;
50301;SDS011;36550;50.472;19.744;2022-08-06T16:39:22;1.52;;;0.90;;
50301;SDS011;36550;50.472;19.744;2022-08-06T16:42:07;4.75;;;1.07;;
50301;SDS011;36550;50.472;19.744;2022-08-06T16:47:36;2.47;;;0.90;;
50301;SDS011;36550;50.472;19.744;2022-08-06T16:50:21;4.35;;;1.00;;
50301;SDS011;36550;50.472;19.744;2022-08-06T16:53:07;2.10;;;1.25;;
50301;SDS011;36550;50.472;19.744;2022-08-06T16:55:52;2.67;;;1.00;;
50301;SDS011;36550;50.472;19.744;2022-08-06T16:58:38;1.50;;;0.93;;
50301;SDS011;36550;50.472;19.744;2022-08-06T17:01:22;1.70;;;1.00;;
50301;SDS011;36550;50.472;19.744;2022-08-06T17:04:07;2.85;;;0.95;;
50301;SDS011;36550;50.472;19.744;2022-08-06T17:06:51;1.50;;;0.90;;
50301;SDS011;36550;50.472;19.744;2022-08-06T17:09:36;3.55;;;1.20;;
50301;SDS011;36550;50.472;19.744;2022-08-06T17:12:21;2.60;;;1.10;;
50301;SDS011;36550;50.472;19.744;2022-08-06T17:15:06;3.58;;;1.32;;
50301;SDS011;36550;50.472;19.744;2022-08-06T17:17:51;3.77;;;1.87;;
50301;SDS011;36550;50.472;19.744;2022-08-06T17:20:35;5.97;;;1.80;;
50301;SDS011;36550;50.472;19.744;2022-08-06T17:23:19;5.75;;;2.00;;
50301;SDS011;36550;50.472;19.744;2022-08-06T17:26:04;4.30;;;1.82;;
50301;SDS011;36550;50.472;19.744;2022-08-06T17:28:49;3.62;;;1.60;;
50301;SDS011;36550;50.472;19.744;2022-08-06T17:31:34;3.98;;;1.42;;
50301;SDS011;36550;50.472;19.744;2022-08-06T17:34:18;2.27;;;1.50;;
50301;SDS011;36550;50.472;19.744;2022-08-06T17:37:02;3.47;;;1.30;;